• Join FlightAware (Why Join?)
  • Login
  • US Flag 
Trick or treat! (Boo!!) 
02:18AM EDT


 

Airport Tracker/Info


-or-


 

Live Flight TrackerFlight Track Log ✈ MRA610 ✈ 29-Jun-2013 ✈ KMBS - KLAN

Flight Track Log - Related Links

Times and Time Zones

All times are in EDT time to prevent confusion due to time zone crossing. See the MRA610 flight status page for this flight to view local times or setup timezone preferences in your user account.

Time Position Orientation Groundspeed Altitude Reporting Facility
EDT Latitude Longitude Course Direction KTS MPH feet Rate Location/Type
05:01PM 43.3825 -84.1818 200° South  Level Estimated
05:02PM 43.3558 -84.1931 197° South  Level FlightAware Approximate
05:03PM 43.3290 -84.2044 197° South  Level FlightAware Approximate
05:04PM 43.3041 -84.2218 206° Southwest  Level Estimated
05:05PM 43.2787 -84.2378 205° Southwest  Level FlightAware Approximate
05:06PM 43.2533 -84.2538 205° Southwest  Level FlightAware Approximate
05:07PM 43.2279 -84.2698 205° Southwest  Level FlightAware Approximate
05:08PM 43.2025 -84.2858 205° Southwest  Level FlightAware Approximate
05:09PM 43.1771 -84.3017 205° Southwest  Level FlightAware Approximate
05:10PM 43.1517 -84.3177 205° Southwest  Level FlightAware Approximate
05:11PM 43.1262 -84.3336 205° Southwest  Level FlightAware Approximate
05:12PM 43.1016 -84.3516 216° Southwest  Level Estimated
05:13PM 43.0783 -84.3728 214° Southwest  Level FlightAware Approximate
05:14PM 43.0535 -84.3905 206° Southwest  Level Estimated
05:15PM 43.0287 -84.4081 207° Southwest  Level FlightAware Approximate
05:16PM 43.0039 -84.4258 209° Southwest  Level Estimated
05:17PM 42.9795 -84.4444 209° Southwest  Level FlightAware Approximate
05:18PM 42.9547 -84.4619 204° Southwest  Level Estimated
05:19PM 42.9292 -84.4778 205° Southwest  Level FlightAware Approximate
05:20PM 42.9038 -84.4936 204° Southwest  Level FlightAware Approximate
05:21PM 42.8784 -84.5094 204° Southwest  Level FlightAware Approximate
05:22PM 42.8540 -84.5282 209° Southwest  Level Estimated
05:23PM 42.8293 -84.5458 208° Southwest  Level FlightAware Approximate